Main page
METAR-TAF:

METAR-TAF

Airports :

Brescia, Italy

Montichiari

latitude: 45-24-02N, longitude: 010-18-59E, elevation: 104 m

Current weather observation

The report was made 1 hour and 0 minutes ago, at 08:50 UTC
Wind 5 kt from the East/Northeast
Temperature 3°C
Humidity 81%
Pressure 1021 hPa
Visibility 10 km or more
no clouds below 1500 m and no cumulonimbus

METAR: LIPO 230850Z 07005KT CAVOK 03/M00 Q1021

Time: 10:50 (09:50 UTC)

Forecast

The report was made 4 hours and 50 minutes ago, at 05:00 UTC
Forecast valid from 23 at 06 UTC to 24 at 06 UTC
Wind 5 kt from variable directions
Visibility 10 km or more
no clouds below 1500 m and no cumulonimbus
Temporary
from 24 at 02 UTC to 24 at 06 UTC
Visibility: 3000 m
mist

TAF: LIPO 230500Z 2306/2406 VRB05KT CAVOK TEMPO 2402/2406 3000 BR

Weather observations and forecasts of more than 4000 airports (METAR and TAF reports).

The available stations are represented by yellow and red dots on the map.

Hover mouse over dot to see the name of the station.

Then click to see weather observations and forecasts.

To change the map : click on the green buttons with a black cross to zoom in, on the green button with a dash to zoom out, or on the green arrows for adjacent maps.


METAR-TAF: